Time;durP1;ratioP1;P1;durP2;ratioP2;P2;SDS_P1;SDS_P2;PMS_P1;PMS_P2;Temp;Humidity;BMP_temperature;BMP_pressure;BME280_temperature;BME280_humidity;BME280_pressure;Samples;Min_cycle;Max_cycle;Signal;HPM_P1;HPM_P2
2022/07/15 00:00:10;;;;;;;;;;;16.90;81.20;;;;;;5037083;28;19923;-49
2022/07/15 00:02:54;;;;;;;;;;;16.90;81.30;;;;;;5035299;28;20263;-52
2022/07/15 00:05:38;;;;;;;;;;;16.80;81.50;;;;;;5034824;28;19916;-53
2022/07/15 00:08:23;;;;;;;;;;;16.90;81.10;;;;;;5034566;28;19932;-55
2022/07/15 00:11:07;;;;;;;;;;;16.80;81.10;;;;;;5034575;28;19925;-53
2022/07/15 00:13:51;;;;;;;;;;;16.70;81.80;;;;;;5033953;28;19920;-49
2022/07/15 00:16:35;;;;;;;;;;;16.70;81.90;;;;;;5033574;28;20372;-51
2022/07/15 00:19:19;;;;;;;;;;;16.80;82.20;;;;;;5034207;28;19916;-58
2022/07/15 00:22:03;;;;;;;;;;;16.80;82.00;;;;;;5018852;28;19916;-55
2022/07/15 00:24:48;;;;;;;;;;;16.80;83.00;;;;;;5033941;28;19916;-56
2022/07/15 00:27:32;;;;;;;;;;;16.80;82.80;;;;;;5033943;28;20372;-56
2022/07/15 00:30:16;;;;;;;;;;;16.70;82.40;;;;;;5033859;28;20315;-52
2022/07/15 00:33:01;;;;;;;;;;;16.60;83.20;;;;;;5033919;28;19966;-53
2022/07/15 00:35:45;;;;;;;;;;;16.50;83.60;;;;;;5034168;28;19919;-51
2022/07/15 00:38:29;;;;;;;;;;;16.50;83.50;;;;;;5032949;28;20612;-54
2022/07/15 00:41:13;;;;;;;;;;;16.40;84.30;;;;;;5034320;28;20486;-51
2022/07/15 00:43:57;;;;;;;;;;;16.20;84.80;;;;;;5033133;28;19919;-50
2022/07/15 00:46:42;;;;;;;;;;;16.30;84.20;;;;;;5033147;28;19964;-53
2022/07/15 00:49:26;;;;;;;;;;;16.30;84.50;;;;;;5032893;28;20379;-51
2022/07/15 00:52:10;;;;;;;;;;;16.20;84.70;;;;;;5033692;28;19912;-52
2022/07/15 00:54:55;;;;;;;;;;;16.00;85.00;;;;;;5013882;28;20112;-55
2022/07/15 00:57:41;;;;;;;;;;;16.10;85.60;;;;;;5017000;28;19924;-52
2022/07/15 01:00:26;;;;;;;;;;;16.00;85.70;;;;;;5033304;28;19962;-52
2022/07/15 01:03:10;;;;;;;;;;;16.20;85.10;;;;;;5033244;28;19955;-54
2022/07/15 01:05:54;;;;;;;;;;;16.00;85.60;;;;;;5032308;28;20198;-54
2022/07/15 01:08:38;;;;;;;;;;;15.90;85.60;;;;;;5032305;28;19916;-51
2022/07/15 01:11:23;;;;;;;;;;;15.80;86.70;;;;;;5033652;28;20438;-49
2022/07/15 01:14:07;;;;;;;;;;;15.70;86.60;;;;;;5032958;28;19919;-52
2022/07/15 01:16:52;;;;;;;;;;;15.60;87.20;;;;;;5032160;28;19964;-53
2022/07/15 01:19:36;;;;;;;;;;;15.70;86.70;;;;;;5018005;28;19963;-52
2022/07/15 01:22:21;;;;;;;;;;;15.70;87.30;;;;;;5033638;28;20419;-55
2022/07/15 01:25:05;;;;;;;;;;;15.60;87.60;;;;;;5013046;28;19972;-50
2022/07/15 01:27:49;;;;;;;;;;;15.50;88.10;;;;;;5015193;28;19915;-56
2022/07/15 01:30:34;;;;;;;;;;;15.50;87.80;;;;;;5033318;28;19916;-52
2022/07/15 01:33:18;;;;;;;;;;;15.30;89.00;;;;;;5032741;28;19971;-53
2022/07/15 01:36:03;;;;;;;;;;;15.40;88.90;;;;;;5032186;28;20237;-52
2022/07/15 01:38:48;;;;;;;;;;;15.20;90.00;;;;;;5032429;28;20467;-49
2022/07/15 01:41:32;;;;;;;;;;;15.30;90.00;;;;;;5033205;28;19989;-49
2022/07/15 01:44:16;;;;;;;;;;;15.30;90.00;;;;;;5026574;28;19915;-50
2022/07/15 01:47:01;;;;;;;;;;;15.20;90.30;;;;;;5031686;28;20372;-51
2022/07/15 01:49:45;;;;;;;;;;;15.20;90.40;;;;;;5032662;28;19963;-54
2022/07/15 01:52:29;;;;;;;;;;;15.20;90.60;;;;;;5032366;28;20369;-52
2022/07/15 01:55:13;;;;;;;;;;;14.90;90.90;;;;;;5032409;28;20006;-54
2022/07/15 01:57:57;;;;;;;;;;;14.90;91.00;;;;;;5032315;28;19921;-52
2022/07/15 02:00:41;;;;;;;;;;;15.00;91.00;;;;;;5013023;28;19959;-52
2022/07/15 02:03:26;;;;;;;;;;;14.80;91.60;;;;;;5029209;28;19963;-53
2022/07/15 02:06:10;;;;;;;;;;;14.70;91.80;;;;;;5031421;28;19924;-53
2022/07/15 02:08:56;;;;;;;;;;;14.70;92.30;;;;;;5032217;28;19964;-52
2022/07/15 02:11:40;;;;;;;;;;;14.80;92.40;;;;;;5032615;28;19967;-52
2022/07/15 02:14:24;;;;;;;;;;;14.60;92.80;;;;;;5032304;28;19916;-54
2022/07/15 02:17:09;;;;;;;;;;;14.60;93.30;;;;;;5032007;28;19932;-50
2022/07/15 02:19:53;;;;;;;;;;;14.50;93.70;;;;;;5032549;28;20380;-53
2022/07/15 02:22:37;;;;;;;;;;;14.40;94.00;;;;;;5032859;28;19951;-56
2022/07/15 02:25:21;;;;;;;;;;;14.40;94.20;;;;;;5032180;28;20474;-51
2022/07/15 02:28:06;;;;;;;;;;;14.40;94.40;;;;;;5032176;28;19923;-51
2022/07/15 02:30:50;;;;;;;;;;;14.30;94.70;;;;;;5012949;28;19972;-54
2022/07/15 02:33:34;;;;;;;;;;;14.40;95.10;;;;;;5016696;28;19963;-49
2022/07/15 02:36:18;;;;;;;;;;;14.50;94.70;;;;;;5032831;28;19911;-54
2022/07/15 02:39:02;;;;;;;;;;;14.50;95.00;;;;;;5032465;28;19915;-52
2022/07/15 02:41:47;;;;;;;;;;;14.40;95.10;;;;;;5033395;28;19915;-54
2022/07/15 02:44:31;;;;;;;;;;;14.40;95.60;;;;;;5033128;28;19923;-55
2022/07/15 02:47:16;;;;;;;;;;;14.30;95.80;;;;;;5033500;28;19920;-53
2022/07/15 02:50:01;;;;;;;;;;;14.20;96.20;;;;;;5031978;28;20284;-56
2022/07/15 02:52:45;;;;;;;;;;;14.50;96.00;;;;;;5033129;28;19920;-50
2022/07/15 02:55:30;;;;;;;;;;;14.40;96.20;;;;;;5031010;28;19981;-51
2022/07/15 02:58:14;;;;;;;;;;;14.50;96.10;;;;;;5031833;28;19916;-55
2022/07/15 03:00:59;;;;;;;;;;;14.70;96.20;;;;;;5032034;28;20293;-51
2022/07/15 03:03:43;;;;;;;;;;;14.70;96.20;;;;;;5031584;28;20296;-53
2022/07/15 03:06:28;;;;;;;;;;;14.70;95.90;;;;;;5031287;28;19915;-53
2022/07/15 03:09:12;;;;;;;;;;;14.80;95.90;;;;;;5032044;28;20051;-52
2022/07/15 03:11:56;;;;;;;;;;;14.90;95.70;;;;;;5034415;28;19920;-54
2022/07/15 03:14:40;;;;;;;;;;;14.90;95.70;;;;;;5036056;28;20296;-52
2022/07/15 03:17:25;;;;;;;;;;;14.90;95.70;;;;;;5035404;28;19916;-57
2022/07/15 03:20:10;;;;;;;;;;;14.90;95.40;;;;;;5035346;28;19962;-51
2022/07/15 03:22:54;;;;;;;;;;;14.80;95.90;;;;;;5035855;28;20415;-52
2022/07/15 03:25:38;;;;;;;;;;;14.70;95.90;;;;;;5015233;28;19959;-55
2022/07/15 03:28:22;;;;;;;;;;;14.70;96.00;;;;;;5018587;28;19932;-54
2022/07/15 03:31:06;;;;;;;;;;;14.70;95.90;;;;;;5013890;28;19959;-49
2022/07/15 03:33:51;;;;;;;;;;;14.70;96.10;;;;;;5035037;28;19920;-53
2022/07/15 03:36:37;;;;;;;;;;;14.60;96.50;;;;;;5034784;28;20005;-51
2022/07/15 03:39:21;;;;;;;;;;;14.50;96.70;;;;;;5034816;28;20412;-52
2022/07/15 03:42:06;;;;;;;;;;;14.50;96.90;;;;;;5035265;28;19912;-49
2022/07/15 03:44:50;;;;;;;;;;;14.50;97.00;;;;;;5034444;28;19916;-55
2022/07/15 03:47:34;;;;;;;;;;;14.30;97.80;;;;;;5034077;28;19928;-53
2022/07/15 03:50:19;;;;;;;;;;;14.40;98.10;;;;;;5034520;28;20371;-51
2022/07/15 03:53:03;;;;;;;;;;;14.50;97.70;;;;;;5024342;28;19920;-52
2022/07/15 03:55:48;;;;;;;;;;;14.70;97.60;;;;;;5033735;28;19967;-54
2022/07/15 03:58:32;;;;;;;;;;;14.80;97.30;;;;;;5034472;28;19920;-54
2022/07/15 04:01:16;;;;;;;;;;;14.90;97.30;;;;;;5034296;28;20380;-52
2022/07/15 04:04:00;;;;;;;;;;;15.00;97.00;;;;;;5019165;28;19920;-54
2022/07/15 04:06:44;;;;;;;;;;;15.10;96.60;;;;;;5012915;28;20324;-50
2022/07/15 04:09:29;;;;;;;;;;;15.10;96.50;;;;;;5034272;28;19916;-50
2022/07/15 04:12:13;;;;;;;;;;;14.90;97.20;;;;;;5033920;28;19936;-51
2022/07/15 04:14:57;;;;;;;;;;;14.90;97.40;;;;;;5034988;28;19959;-55
2022/07/15 04:17:41;;;;;;;;;;;14.80;97.80;;;;;;5034098;28;20391;-49
2022/07/15 04:20:26;;;;;;;;;;;14.60;98.00;;;;;;5034450;28;19975;-51
2022/07/15 04:23:10;;;;;;;;;;;14.60;98.20;;;;;;5033631;28;19966;-49
2022/07/15 04:25:54;;;;;;;;;;;14.80;98.40;;;;;;5034376;28;19916;-54
2022/07/15 04:28:38;;;;;;;;;;;14.80;98.00;;;;;;5022206;28;19994;-50
2022/07/15 04:31:23;;;;;;;;;;;15.10;97.60;;;;;;5033597;28;20488;-53
2022/07/15 04:34:07;;;;;;;;;;;15.00;97.60;;;;;;5033376;28;19951;-50
2022/07/15 04:36:51;;;;;;;;;;;14.80;98.10;;;;;;5033133;28;19958;-56
2022/07/15 04:39:36;;;;;;;;;;;14.90;98.10;;;;;;5033223;28;19920;-54
2022/07/15 04:42:20;;;;;;;;;;;15.10;97.50;;;;;;5032268;28;19992;-52
2022/07/15 04:45:04;;;;;;;;;;;15.20;97.50;;;;;;5032212;28;20443;-55
2022/07/15 04:47:48;;;;;;;;;;;15.00;97.50;;;;;;5033509;28;20010;-54
2022/07/15 04:50:51;;;;;;;;;;;15.10;97.40;;;;;;5034063;28;19924;-53
2022/07/15 04:53:35;;;;;;;;;;;15.20;97.40;;;;;;5019050;28;20035;-54
2022/07/15 04:56:20;;;;;;;;;;;15.10;97.50;;;;;;5033537;28;19920;-50
2022/07/15 04:59:04;;;;;;;;;;;15.00;97.80;;;;;;5033481;28;19993;-52
2022/07/15 05:01:48;;;;;;;;;;;14.90;98.10;;;;;;5033549;28;19971;-53
2022/07/15 05:04:32;;;;;;;;;;;15.10;97.90;;;;;;5034042;28;19915;-53
2022/07/15 05:07:16;;;;;;;;;;;15.20;97.80;;;;;;5033182;28;20292;-50
2022/07/15 05:10:00;;;;;;;;;;;15.30;97.40;;;;;;5034104;28;19977;-56
2022/07/15 05:12:45;;;;;;;;;;;15.40;97.70;;;;;;5033357;28;19966;-50
2022/07/15 05:15:29;;;;;;;;;;;15.40;97.30;;;;;;5032771;28;19924;-54
2022/07/15 05:18:14;;;;;;;;;;;15.30;97.50;;;;;;5032313;28;19911;-52
2022/07/15 05:20:58;;;;;;;;;;;15.20;97.80;;;;;;5034003;28;19916;-52
2022/07/15 05:23:42;;;;;;;;;;;15.50;97.40;;;;;;5033270;28;19975;-53
2022/07/15 05:26:26;;;;;;;;;;;15.60;97.20;;;;;;5017769;28;19971;-56
2022/07/15 05:29:10;;;;;;;;;;;15.70;97.00;;;;;;5032017;28;20051;-51
2022/07/15 05:31:54;;;;;;;;;;;15.80;97.00;;;;;;5031660;28;19924;-51
2022/07/15 05:34:39;;;;;;;;;;;15.70;96.90;;;;;;5032514;28;19920;-52
2022/07/15 05:37:23;;;;;;;;;;;15.50;97.30;;;;;;5033223;28;19916;-51
2022/07/15 05:40:08;;;;;;;;;;;15.70;97.00;;;;;;4999075;28;19916;-51
2022/07/15 05:42:53;;;;;;;;;;;15.70;97.00;;;;;;5008213;28;19952;-54
2022/07/15 05:45:37;;;;;;;;;;;15.70;96.90;;;;;;5032126;28;20002;-52
2022/07/15 05:48:21;;;;;;;;;;;15.70;97.30;;;;;;5031992;28;19924;-55
2022/07/15 05:51:05;;;;;;;;;;;15.80;97.20;;;;;;5033305;28;20007;-55
2022/07/15 05:53:49;;;;;;;;;;;16.10;96.60;;;;;;5031950;28;19920;-54
2022/07/15 05:56:34;;;;;;;;;;;16.30;96.20;;;;;;5032549;28;19923;-54
2022/07/15 05:59:18;;;;;;;;;;;16.20;96.40;;;;;;5032598;28;19955;-50
2022/07/15 06:02:02;;;;;;;;;;;16.30;95.60;;;;;;5017128;28;19968;-56
2022/07/15 06:04:46;;;;;;;;;;;16.30;95.80;;;;;;5012002;28;19919;-53
2022/07/15 06:07:31;;;;;;;;;;;16.20;96.30;;;;;;5013828;28;20316;-51
2022/07/15 06:10:15;;;;;;;;;;;16.10;95.70;;;;;;5032070;28;19932;-52
2022/07/15 06:12:59;;;;;;;;;;;16.30;95.60;;;;;;5029979;28;19924;-53
2022/07/15 06:15:43;;;;;;;;;;;16.30;95.40;;;;;;5031436;28;19967;-52
2022/07/15 06:18:27;;;;;;;;;;;16.20;95.60;;;;;;5031440;28;20418;-51
2022/07/15 06:21:12;;;;;;;;;;;16.10;95.70;;;;;;5032149;28;20351;-56
2022/07/15 06:23:56;;;;;;;;;;;16.30;95.30;;;;;;5032371;28;19919;-53
2022/07/15 06:26:40;;;;;;;;;;;16.40;95.00;;;;;;5031670;28;19915;-50
2022/07/15 06:29:24;;;;;;;;;;;16.50;95.00;;;;;;5031114;28;19981;-52
2022/07/15 06:32:11;;;;;;;;;;;16.60;93.70;;;;;;5028963;28;20050;-52
2022/07/15 06:34:56;;;;;;;;;;;16.80;93.30;;;;;;5032696;28;19924;-53
2022/07/15 06:37:40;;;;;;;;;;;17.00;92.90;;;;;;5030702;28;20027;-56
2022/07/15 06:40:24;;;;;;;;;;;17.20;92.20;;;;;;5032283;28;19919;-54
2022/07/15 06:43:08;;;;;;;;;;;17.10;93.00;;;;;;5023842;28;19967;-53
2022/07/15 06:45:52;;;;;;;;;;;17.10;91.80;;;;;;5031536;28;19965;-55
2022/07/15 06:48:38;;;;;;;;;;;17.10;91.10;;;;;;5035807;28;20439;-53
2022/07/15 06:51:22;;;;;;;;;;;17.20;91.60;;;;;;5027968;28;19995;-57
2022/07/15 06:54:07;;;;;;;;;;;17.40;91.80;;;;;;5031399;28;19916;-54
2022/07/15 06:56:51;;;;;;;;;;;17.60;89.90;;;;;;5034348;28;19920;-54
2022/07/15 06:59:36;;;;;;;;;;;17.40;86.70;;;;;;5034204;28;19971;-51
2022/07/15 07:02:20;;;;;;;;;;;17.40;88.00;;;;;;5033839;28;19919;-51
2022/07/15 07:05:04;;;;;;;;;;;17.40;84.10;;;;;;5020179;28;19955;-49
2022/07/15 07:07:49;;;;;;;;;;;17.50;83.30;;;;;;5033178;28;19916;-53
2022/07/15 07:10:33;;;;;;;;;;;17.60;83.90;;;;;;5034227;28;20261;-53
2022/07/15 07:13:17;;;;;;;;;;;17.90;80.40;;;;;;5033616;28;20285;-50
2022/07/15 07:16:02;;;;;;;;;;;17.90;79.20;;;;;;5034616;28;19936;-55
2022/07/15 07:18:47;;;;;;;;;;;17.90;77.10;;;;;;5035363;28;20332;-52
2022/07/15 07:21:31;;;;;;;;;;;17.50;77.90;;;;;;5020142;28;19923;-56
2022/07/15 07:24:15;;;;;;;;;;;17.50;79.10;;;;;;5017646;28;19923;-51
2022/07/15 07:27:00;;;;;;;;;;;17.50;79.70;;;;;;5018279;28;19923;-53
2022/07/15 07:29:44;;;;;;;;;;;17.60;78.40;;;;;;5034280;28;19975;-52
2022/07/15 07:32:28;;;;;;;;;;;17.70;78.00;;;;;;5028876;28;20259;-56
2022/07/15 07:35:12;;;;;;;;;;;17.70;76.90;;;;;;5032647;28;20284;-63
2022/07/15 07:37:56;;;;;;;;;;;17.50;77.00;;;;;;5034570;28;19998;-53
2022/07/15 07:40:41;;;;;;;;;;;17.40;77.60;;;;;;5035433;28;19924;-56
2022/07/15 07:43:25;;;;;;;;;;;17.70;77.40;;;;;;5032483;28;19935;-59
2022/07/15 07:46:10;;;;;;;;;;;17.90;77.50;;;;;;5033757;28;19996;-55
2022/07/15 07:48:55;;;;;;;;;;;18.00;77.80;;;;;;5031446;28;20068;-52
2022/07/15 07:51:41;;;;;;;;;;;17.80;77.00;;;;;;5032769;28;20288;-51
2022/07/15 07:54:25;;;;;;;;;;;17.40;77.50;;;;;;5034609;28;19927;-54
2022/07/15 07:57:10;;;;;;;;;;;17.50;79.00;;;;;;5033911;28;19916;-52
2022/07/15 07:59:54;;;;;;;;;;;17.60;78.80;;;;;;5034790;28;19912;-54
2022/07/15 08:02:38;;;;;;;;;;;17.80;77.60;;;;;;5034195;28;19945;-53
2022/07/15 08:05:23;;;;;;;;;;;17.80;75.60;;;;;;5029509;28;19970;-54
2022/07/15 08:08:12;;;;;;;;;;;17.80;76.00;;;;;;5043837;28;19928;-54
2022/07/15 08:10:57;;;;;;;;;;;17.80;76.70;;;;;;5043505;28;19916;-56
2022/07/15 08:13:41;;;;;;;;;;;17.80;76.80;;;;;;5031951;28;19916;-55
2022/07/15 08:16:25;;;;;;;;;;;18.10;75.80;;;;;;5033687;28;20059;-54
2022/07/15 08:19:13;;;;;;;;;;;18.20;75.10;;;;;;5034221;28;19939;-54
2022/07/15 08:21:57;;;;;;;;;;;18.10;75.40;;;;;;5033679;28;19924;-55
2022/07/15 08:24:41;;;;;;;;;;;18.20;73.20;;;;;;5032182;28;19916;-54
2022/07/15 08:27:26;;;;;;;;;;;18.10;73.40;;;;;;5032723;28;19974;-55
2022/07/15 08:30:10;;;;;;;;;;;18.30;73.50;;;;;;5049969;28;19919;-53
2022/07/15 08:32:54;;;;;;;;;;;18.30;73.80;;;;;;5045596;28;20280;-55
2022/07/15 08:35:40;;;;;;;;;;;18.50;73.50;;;;;;5032879;28;19981;-52
2022/07/15 08:38:24;;;;;;;;;;;18.30;74.00;;;;;;5032653;28;19988;-52
2022/07/15 08:41:09;;;;;;;;;;;18.50;74.20;;;;;;5033843;28;19916;-53
2022/07/15 08:43:53;;;;;;;;;;;18.50;74.50;;;;;;5033067;28;19963;-54
2022/07/15 08:46:40;;;;;;;;;;;18.50;73.60;;;;;;5033972;28;20613;-54
2022/07/15 08:49:25;;;;;;;;;;;18.40;74.40;;;;;;5043901;28;19939;-53
2022/07/15 08:52:11;;;;;;;;;;;18.30;74.50;;;;;;5049450;28;19919;-54
2022/07/15 08:54:55;;;;;;;;;;;18.30;74.80;;;;;;5028095;28;20020;-56
2022/07/15 08:57:39;;;;;;;;;;;18.40;73.40;;;;;;5013826;28;20065;-55
2022/07/15 09:00:31;;;;;;;;;;;18.40;74.00;;;;;;5022702;28;20023;-55
2022/07/15 09:03:15;;;;;;;;;;;18.40;74.30;;;;;;5033825;28;20442;-55
2022/07/15 09:06:00;;;;;;;;;;;18.60;72.20;;;;;;5032772;28;19967;-58
2022/07/15 09:08:44;;;;;;;;;;;18.80;71.70;;;;;;5017960;28;19919;-55
2022/07/15 09:11:29;;;;;;;;;;;18.90;72.00;;;;;;5032551;28;19920;-53
2022/07/15 09:14:13;;;;;;;;;;;18.90;72.90;;;;;;5038518;28;19923;-53
2022/07/15 09:17:07;;;;;;;;;;;19.10;73.00;;;;;;5031659;28;19916;-58
2022/07/15 09:19:57;;;;;;;;;;;19.30;72.10;;;;;;5018004;28;20399;-56
2022/07/15 09:22:57;;;;;;;;;;;19.30;70.70;;;;;;5024007;28;19943;-53
2022/07/15 09:25:41;;;;;;;;;;;19.60;70.60;;;;;;5017461;28;20240;-56
2022/07/15 09:28:36;;;;;;;;;;;19.50;69.30;;;;;;5034782;28;20396;-53
2022/07/15 09:34:30;;;;;;;;;;;18.90;70.20;;;;;;5038661;28;19967;-52
2022/07/15 09:37:14;;;;;;;;;;;19.00;71.30;;;;;;5030607;28;19948;-53
2022/07/15 09:40:00;;;;;;;;;;;19.10;71.40;;;;;;5032857;28;19915;-51
2022/07/15 09:43:05;;;;;;;;;;;19.00;71.80;;;;;;5027262;28;20462;-56
2022/07/15 09:45:56;;;;;;;;;;;19.30;70.50;;;;;;5029055;28;19911;-55
2022/07/15 09:48:41;;;;;;;;;;;19.50;70.50;;;;;;5030426;28;19951;-51
2022/07/15 09:51:25;;;;;;;;;;;19.50;70.70;;;;;;5050579;28;19982;-52
2022/07/15 09:54:12;;;;;;;;;;;19.30;70.30;;;;;;5037984;28;19915;-53
2022/07/15 09:56:58;;;;;;;;;;;19.20;71.40;;;;;;5043963;28;19916;-55
2022/07/15 09:59:42;;;;;;;;;;;19.00;70.90;;;;;;5033273;28;20356;-51
2022/07/15 10:02:27;;;;;;;;;;;19.10;70.80;;;;;;5031583;28;19932;-55
2022/07/15 10:05:11;;;;;;;;;;;19.40;71.30;;;;;;5030884;28;19916;-56
2022/07/15 10:07:56;;;;;;;;;;;19.60;70.90;;;;;;5032492;28;19943;-57
2022/07/15 10:10:40;;;;;;;;;;;19.60;71.20;;;;;;5018128;28;19955;-52
2022/07/15 10:13:43;;;;;;;;;;;19.20;71.30;;;;;;5033320;28;19955;-56
2022/07/15 10:16:46;;;;;;;;;;;19.20;71.10;;;;;;5017110;28;20126;-54
2022/07/15 10:19:48;;;;;;;;;;;19.60;71.60;;;;;;5044952;28;20292;-53
2022/07/15 10:22:35;;;;;;;;;;;19.30;71.10;;;;;;5027261;28;20359;-55
2022/07/15 10:25:39;;;;;;;;;;;19.50;71.30;;;;;;5032376;28;20416;-62
2022/07/15 10:28:52;;;;;;;;;;;19.40;71.40;;;;;;5035933;28;19923;-56
2022/07/15 10:31:38;;;;;;;;;;;19.50;71.20;;;;;;5032891;28;19937;-56
2022/07/15 10:34:23;;;;;;;;;;;19.40;70.80;;;;;;5035213;28;20411;-55
2022/07/15 10:37:10;;;;;;;;;;;19.40;71.20;;;;;;5035439;28;19936;-55
2022/07/15 10:40:07;;;;;;;;;;;19.20;70.90;;;;;;5036888;28;19955;-53
2022/07/15 10:43:01;;;;;;;;;;;19.10;71.20;;;;;;5038063;28;19996;-55
2022/07/15 10:46:04;;;;;;;;;;;19.20;71.10;;;;;;5034584;28;20391;-55
2022/07/15 10:48:50;;;;;;;;;;;19.40;70.40;;;;;;5035296;28;19964;-55
2022/07/15 10:51:37;;;;;;;;;;;19.50;70.70;;;;;;5021584;28;19927;-54
2022/07/15 10:54:33;;;;;;;;;;;19.80;70.90;;;;;;5035576;28;19924;-57
2022/07/15 10:57:19;;;;;;;;;;;19.70;71.10;;;;;;5034660;28;19959;-57
2022/07/15 11:00:03;;;;;;;;;;;19.70;70.50;;;;;;5035467;28;19912;-56
2022/07/15 11:03:06;;;;;;;;;;;19.70;70.80;;;;;;5028479;28;19920;-56
2022/07/15 11:05:53;;;;;;;;;;;20.10;69.40;;;;;;5033385;28;19979;-55
2022/07/15 11:08:39;;;;;;;;;;;20.20;70.10;;;;;;5034250;28;19940;-55
2022/07/15 11:11:23;;;;;;;;;;;19.90;71.30;;;;;;5034810;28;19963;-54
2022/07/15 11:14:30;;;;;;;;;;;19.90;70.80;;;;;;5034583;28;19916;-58
2022/07/15 11:17:19;;;;;;;;;;;20.10;69.80;;;;;;5034887;28;19954;-54
2022/07/15 11:20:08;;;;;;;;;;;20.30;69.40;;;;;;5034516;28;20383;-56
2022/07/15 11:22:53;;;;;;;;;;;20.10;69.60;;;;;;5034267;28;19997;-55
2022/07/15 11:25:39;;;;;;;;;;;20.20;69.70;;;;;;5035862;28;19996;-55
2022/07/15 11:28:23;;;;;;;;;;;20.30;69.80;;;;;;5035072;28;19915;-57
2022/07/15 11:31:08;;;;;;;;;;;20.10;69.40;;;;;;5034959;28;19916;-56
2022/07/15 11:33:55;;;;;;;;;;;20.10;70.00;;;;;;5034327;28;20538;-54
2022/07/15 11:36:40;;;;;;;;;;;19.90;70.10;;;;;;5033987;28;20047;-54
2022/07/15 11:39:28;;;;;;;;;;;20.00;70.50;;;;;;5034827;28;20276;-55
2022/07/15 11:45:33;;;;;;;;;;;20.10;69.60;;;;;;5028931;28;20392;-54
2022/07/15 11:48:17;;;;;;;;;;;20.00;69.40;;;;;;5034615;28;19916;-53
2022/07/15 11:51:02;;;;;;;;;;;20.10;69.40;;;;;;5035188;28;19956;-58
2022/07/15 11:53:47;;;;;;;;;;;20.00;70.00;;;;;;5035121;28;19924;-56
2022/07/15 11:56:32;;;;;;;;;;;20.20;70.10;;;;;;5034577;28;19959;-55
2022/07/15 11:59:16;;;;;;;;;;;20.10;69.60;;;;;;5035607;28;19920;-56
2022/07/15 12:02:01;;;;;;;;;;;20.20;69.60;;;;;;5036202;28;20367;-56
2022/07/15 12:04:46;;;;;;;;;;;20.40;68.80;;;;;;5035464;28;20483;-56
2022/07/15 12:07:40;;;;;;;;;;;20.30;69.00;;;;;;5034060;28;19987;-56
2022/07/15 12:10:39;;;;;;;;;;;20.10;68.10;;;;;;5034004;28;19916;-54
2022/07/15 12:13:24;;;;;;;;;;;19.90;68.90;;;;;;5033869;28;20036;-55
2022/07/15 12:16:08;;;;;;;;;;;20.00;69.30;;;;;;5019008;28;20024;-57
2022/07/15 12:18:54;;;;;;;;;;;20.00;69.90;;;;;;5034686;28;19967;-54
2022/07/15 12:21:38;;;;;;;;;;;20.00;70.10;;;;;;5035090;28;19915;-53
2022/07/15 12:24:25;;;;;;;;;;;20.00;70.20;;;;;;5034073;28;19931;-53
2022/07/15 12:27:10;;;;;;;;;;;20.20;69.90;;;;;;5033473;28;19920;-50
2022/07/15 12:29:59;;;;;;;;;;;20.20;70.20;;;;;;5034298;28;19912;-53
2022/07/15 12:32:43;;;;;;;;;;;20.60;69.70;;;;;;5034190;28;19931;-53
2022/07/15 12:35:27;;;;;;;;;;;20.90;68.30;;;;;;5033376;28;20515;-54
2022/07/15 12:38:28;;;;;;;;;;;20.70;68.10;;;;;;5033932;28;19932;-54
2022/07/15 12:41:23;;;;;;;;;;;20.70;67.90;;;;;;5035058;28;19955;-57
2022/07/15 12:44:07;;;;;;;;;;;21.00;67.60;;;;;;5033692;28;19955;-54
2022/07/15 12:46:54;;;;;;;;;;;21.30;67.80;;;;;;5032820;28;19919;-56
2022/07/15 12:49:44;;;;;;;;;;;21.10;67.10;;;;;;5034146;28;19916;-55
2022/07/15 12:52:38;;;;;;;;;;;20.80;65.90;;;;;;5034250;28;19912;-56
2022/07/15 12:55:24;;;;;;;;;;;21.00;66.20;;;;;;5034861;28;20087;-56
2022/07/15 12:58:10;;;;;;;;;;;21.00;66.50;;;;;;5036668;28;19993;-53
2022/07/15 13:01:03;;;;;;;;;;;21.10;66.00;;;;;;5035238;28;19932;-55
2022/07/15 13:03:48;;;;;;;;;;;21.10;66.30;;;;;;5020792;28;19943;-53
2022/07/15 13:06:32;;;;;;;;;;;21.00;67.00;;;;;;5032814;28;19920;-51
2022/07/15 13:09:16;;;;;;;;;;;21.20;66.10;;;;;;5032424;28;19962;-55
2022/07/15 13:12:01;;;;;;;;;;;21.10;66.50;;;;;;5032635;28;20367;-52
2022/07/15 13:14:46;;;;;;;;;;;21.40;66.20;;;;;;5033315;28;20010;-53
2022/07/15 13:17:30;;;;;;;;;;;21.50;66.40;;;;;;5032778;28;20318;-58
2022/07/15 13:20:14;;;;;;;;;;;21.70;66.60;;;;;;5033629;28;19963;-52
2022/07/15 13:22:59;;;;;;;;;;;21.90;65.90;;;;;;5033594;28;19969;-53
2022/07/15 13:25:45;;;;;;;;;;;21.90;65.80;;;;;;5032957;28;19928;-52
2022/07/15 13:28:29;;;;;;;;;;;21.90;64.60;;;;;;5032331;28;19928;-56
2022/07/15 13:31:13;;;;;;;;;;;21.60;64.70;;;;;;5033163;28;19915;-54
2022/07/15 13:33:58;;;;;;;;;;;21.30;65.00;;;;;;5018536;28;19920;-55
2022/07/15 13:36:42;;;;;;;;;;;21.30;65.20;;;;;;5017226;28;19916;-56
2022/07/15 13:39:26;;;;;;;;;;;20.90;65.70;;;;;;5032888;28;19966;-56
2022/07/15 13:42:10;;;;;;;;;;;20.60;66.00;;;;;;5032564;28;19916;-55
2022/07/15 13:44:55;;;;;;;;;;;20.50;66.70;;;;;;5033328;28;19917;-57
2022/07/15 13:47:39;;;;;;;;;;;20.70;65.80;;;;;;5033199;28;20000;-55
2022/07/15 13:53:26;;;;;;;;;;;20.60;66.70;;;;;;5032410;28;19998;-52
2022/07/15 13:56:10;;;;;;;;;;;20.90;65.50;;;;;;5016735;28;19912;-55
2022/07/15 13:58:58;;;;;;;;;;;20.90;65.70;;;;;;5032167;28;19973;-55
2022/07/15 14:01:42;;;;;;;;;;;20.90;66.40;;;;;;5017555;28;19916;-56
2022/07/15 14:04:27;;;;;;;;;;;21.10;65.70;;;;;;5017279;28;19959;-57
2022/07/15 14:07:12;;;;;;;;;;;21.10;64.50;;;;;;5031619;28;20380;-54
2022/07/15 14:09:56;;;;;;;;;;;21.20;65.60;;;;;;5018125;28;20430;-54
2022/07/15 14:12:40;;;;;;;;;;;21.30;65.60;;;;;;5032899;28;19971;-54
2022/07/15 14:15:24;;;;;;;;;;;21.30;65.00;;;;;;5032497;28;20422;-57
2022/07/15 14:18:09;;;;;;;;;;;21.10;65.60;;;;;;5016655;28;19927;-54
2022/07/15 14:20:53;;;;;;;;;;;20.80;65.40;;;;;;5032800;28;19911;-50
2022/07/15 14:23:37;;;;;;;;;;;20.60;65.50;;;;;;5032684;28;20596;-53
2022/07/15 14:26:21;;;;;;;;;;;20.80;65.40;;;;;;5031649;28;19957;-53
2022/07/15 14:29:06;;;;;;;;;;;20.80;65.30;;;;;;5016564;28;19980;-51
2022/07/15 14:31:50;;;;;;;;;;;20.40;65.90;;;;;;5031926;28;19959;-52
2022/07/15 14:34:34;;;;;;;;;;;20.40;66.20;;;;;;5032597;28;19916;-54
2022/07/15 14:37:18;;;;;;;;;;;20.50;66.00;;;;;;5031437;28;19916;-52
2022/07/15 14:40:04;;;;;;;;;;;20.60;65.40;;;;;;5032350;28;19976;-56
2022/07/15 14:42:48;;;;;;;;;;;20.70;65.80;;;;;;5031795;28;20277;-53
2022/07/15 14:45:35;;;;;;;;;;;21.00;65.50;;;;;;5031724;28;19912;-53
2022/07/15 14:48:19;;;;;;;;;;;21.30;65.10;;;;;;5031405;28;20234;-55
2022/07/15 14:51:06;;;;;;;;;;;21.40;65.60;;;;;;5032303;28;19916;-52
2022/07/15 14:53:50;;;;;;;;;;;21.40;65.20;;;;;;5032068;28;19958;-53
2022/07/15 14:56:34;;;;;;;;;;;21.40;64.80;;;;;;5031877;28;19928;-52
2022/07/15 14:59:18;;;;;;;;;;;21.10;64.90;;;;;;5032415;28;19936;-53
2022/07/15 15:02:04;;;;;;;;;;;21.00;64.80;;;;;;5032396;28;19916;-57
2022/07/15 15:04:48;;;;;;;;;;;20.70;65.60;;;;;;5032325;28;19952;-55
2022/07/15 15:07:32;;;;;;;;;;;20.70;65.50;;;;;;5031961;28;19920;-57
2022/07/15 15:10:16;;;;;;;;;;;20.80;65.00;;;;;;5035051;28;20002;-53
2022/07/15 15:13:01;;;;;;;;;;;20.90;64.80;;;;;;5035212;28;19998;-57
2022/07/15 15:15:45;;;;;;;;;;;21.00;65.10;;;;;;5034829;28;19916;-55
2022/07/15 15:18:29;;;;;;;;;;;21.10;64.90;;;;;;5034905;28;19950;-52
2022/07/15 15:21:13;;;;;;;;;;;21.00;64.90;;;;;;5035458;28;19962;-54
2022/07/15 15:23:57;;;;;;;;;;;21.20;64.80;;;;;;5035804;28;19971;-52
2022/07/15 15:26:42;;;;;;;;;;;21.50;63.60;;;;;;5034739;28;19975;-55
2022/07/15 15:29:26;;;;;;;;;;;21.40;63.10;;;;;;5035066;28;19959;-55
2022/07/15 15:32:11;;;;;;;;;;;21.40;63.80;;;;;;5019769;28;19940;-56
2022/07/15 15:34:55;;;;;;;;;;;21.30;64.10;;;;;;5035610;28;20002;-55
2022/07/15 15:37:39;;;;;;;;;;;21.40;63.60;;;;;;5035317;28;19920;-53
2022/07/15 15:40:23;;;;;;;;;;;21.20;63.80;;;;;;5034992;28;20384;-56
2022/07/15 15:43:11;;;;;;;;;;;21.00;63.90;;;;;;5019527;28;19915;-57
2022/07/15 15:45:56;;;;;;;;;;;21.10;62.80;;;;;;5035123;28;19916;-57
2022/07/15 15:48:40;;;;;;;;;;;21.10;62.50;;;;;;5034782;28;19959;-56
2022/07/15 15:51:24;;;;;;;;;;;21.10;63.10;;;;;;5034774;28;20276;-55
2022/07/15 15:54:08;;;;;;;;;;;21.10;63.00;;;;;;5034833;28;20434;-52
2022/07/15 15:56:53;;;;;;;;;;;21.20;62.70;;;;;;5035020;28;19912;-57
2022/07/15 15:59:37;;;;;;;;;;;21.50;62.50;;;;;;5034751;28;19920;-53
2022/07/15 16:02:21;;;;;;;;;;;22.00;62.20;;;;;;5034714;28;19932;-57
2022/07/15 16:05:06;;;;;;;;;;;22.60;61.00;;;;;;5034425;28;19916;-52
2022/07/15 16:07:50;;;;;;;;;;;22.50;60.40;;;;;;5034594;28;19919;-53
2022/07/15 16:10:35;;;;;;;;;;;22.40;60.50;;;;;;5034981;28;19980;-53